sensor_id;sensor_type;location;lat;lon;timestamp;temperature;humidity
32366;DHT22;18837;46.832;16.838;2023-11-19T00:00:26;7.20;93.20
32366;DHT22;18837;46.832;16.838;2023-11-19T00:02:52;7.30;94.00
32366;DHT22;18837;46.832;16.838;2023-11-19T00:05:18;7.20;94.00
32366;DHT22;18837;46.832;16.838;2023-11-19T00:10:12;7.20;94.10
32366;DHT22;18837;46.832;16.838;2023-11-19T00:12:39;7.20;94.00
32366;DHT22;18837;46.832;16.838;2023-11-19T00:15:06;7.20;93.50
32366;DHT22;18837;46.832;16.838;2023-11-19T00:17:39;7.20;93.80
32366;DHT22;18837;46.832;16.838;2023-11-19T00:20:06;7.20;94.00
32366;DHT22;18837;46.832;16.838;2023-11-19T00:22:33;7.20;94.00
32366;DHT22;18837;46.832;16.838;2023-11-19T00:27:25;7.20;94.10
32366;DHT22;18837;46.832;16.838;2023-11-19T00:32:17;7.10;94.00
32366;DHT22;18837;46.832;16.838;2023-11-19T00:34:44;7.10;94.00
32366;DHT22;18837;46.832;16.838;2023-11-19T00:39:38;7.20;94.00
32366;DHT22;18837;46.832;16.838;2023-11-19T00:42:10;7.10;93.80
32366;DHT22;18837;46.832;16.838;2023-11-19T00:44:36;7.10;94.20
32366;DHT22;18837;46.832;16.838;2023-11-19T00:49:28;7.10;94.20
32366;DHT22;18837;46.832;16.838;2023-11-19T00:51:54;7.10;94.10
32366;DHT22;18837;46.832;16.838;2023-11-19T01:04:05;7.10;93.80
32366;DHT22;18837;46.832;16.838;2023-11-19T01:08:58;7.10;93.70
32366;DHT22;18837;46.832;16.838;2023-11-19T01:11:25;7.10;94.10
32366;DHT22;18837;46.832;16.838;2023-11-19T01:13:56;7.10;92.90
32366;DHT22;18837;46.832;16.838;2023-11-19T01:16:22;7.10;93.50
32366;DHT22;18837;46.832;16.838;2023-11-19T01:18:48;7.10;94.10
32366;DHT22;18837;46.832;16.838;2023-11-19T01:23:41;7.10;94.20
32366;DHT22;18837;46.832;16.838;2023-11-19T01:26:10;7.00;94.20
32366;DHT22;18837;46.832;16.838;2023-11-19T01:28:36;7.10;93.40
32366;DHT22;18837;46.832;16.838;2023-11-19T01:33:29;7.10;94.00
32366;DHT22;18837;46.832;16.838;2023-11-19T01:35:56;7.10;94.20
32366;DHT22;18837;46.832;16.838;2023-11-19T01:38:24;7.10;94.20
32366;DHT22;18837;46.832;16.838;2023-11-19T01:43:39;7.10;93.70
32366;DHT22;18837;46.832;16.838;2023-11-19T01:48:41;7.00;94.30
32366;DHT22;18837;46.832;16.838;2023-11-19T01:51:13;7.10;93.60
32366;DHT22;18837;46.832;16.838;2023-11-19T01:53:43;7.00;94.30
32366;DHT22;18837;46.832;16.838;2023-11-19T01:56:13;7.10;94.40
32366;DHT22;18837;46.832;16.838;2023-11-19T01:58:41;7.10;94.50
32366;DHT22;18837;46.832;16.838;2023-11-19T02:01:07;7.00;93.70
32366;DHT22;18837;46.832;16.838;2023-11-19T02:03:33;7.00;94.30
32366;DHT22;18837;46.832;16.838;2023-11-19T02:06:00;7.10;94.30
32366;DHT22;18837;46.832;16.838;2023-11-19T02:08:26;7.10;94.40
32366;DHT22;18837;46.832;16.838;2023-11-19T02:10:52;7.10;94.40
32366;DHT22;18837;46.832;16.838;2023-11-19T02:13:18;7.00;94.40
32366;DHT22;18837;46.832;16.838;2023-11-19T02:15:44;7.10;94.40
32366;DHT22;18837;46.832;16.838;2023-11-19T02:18:23;7.10;94.50
32366;DHT22;18837;46.832;16.838;2023-11-19T02:20:50;7.10;94.50
32366;DHT22;18837;46.832;16.838;2023-11-19T02:23:16;7.00;94.50
32366;DHT22;18837;46.832;16.838;2023-11-19T02:25:47;7.10;94.40
32366;DHT22;18837;46.832;16.838;2023-11-19T02:28:15;7.00;94.40
32366;DHT22;18837;46.832;16.838;2023-11-19T02:30:42;7.00;94.40
32366;DHT22;18837;46.832;16.838;2023-11-19T02:33:07;7.00;94.00
32366;DHT22;18837;46.832;16.838;2023-11-19T02:38:01;7.00;93.10
32366;DHT22;18837;46.832;16.838;2023-11-19T02:42:55;7.00;94.60
32366;DHT22;18837;46.832;16.838;2023-11-19T02:45:23;7.00;94.60
32366;DHT22;18837;46.832;16.838;2023-11-19T02:47:49;7.00;93.60
32366;DHT22;18837;46.832;16.838;2023-11-19T02:50:15;7.00;94.50
32366;DHT22;18837;46.832;16.838;2023-11-19T02:52:41;7.10;94.00
32366;DHT22;18837;46.832;16.838;2023-11-19T02:55:08;7.00;94.50
32366;DHT22;18837;46.832;16.838;2023-11-19T02:57:41;7.00;94.70
32366;DHT22;18837;46.832;16.838;2023-11-19T03:00:14;7.00;94.70
32366;DHT22;18837;46.832;16.838;2023-11-19T03:02:40;7.00;94.70
32366;DHT22;18837;46.832;16.838;2023-11-19T03:05:14;7.10;94.60
32366;DHT22;18837;46.832;16.838;2023-11-19T03:07:43;7.00;94.70
32366;DHT22;18837;46.832;16.838;2023-11-19T03:10:10;7.00;94.50
32366;DHT22;18837;46.832;16.838;2023-11-19T03:12:43;7.00;92.60
32366;DHT22;18837;46.832;16.838;2023-11-19T03:15:09;7.00;94.60
32366;DHT22;18837;46.832;16.838;2023-11-19T03:17:41;7.10;92.70
32366;DHT22;18837;46.832;16.838;2023-11-19T03:20:10;7.00;94.60
32366;DHT22;18837;46.832;16.838;2023-11-19T03:22:39;7.00;94.70
32366;DHT22;18837;46.832;16.838;2023-11-19T03:25:07;7.00;94.30
32366;DHT22;18837;46.832;16.838;2023-11-19T03:27:35;7.10;94.80
32366;DHT22;18837;46.832;16.838;2023-11-19T03:30:02;7.00;94.60
32366;DHT22;18837;46.832;16.838;2023-11-19T03:32:31;7.00;94.80
32366;DHT22;18837;46.832;16.838;2023-11-19T03:34:57;7.00;94.70
32366;DHT22;18837;46.832;16.838;2023-11-19T03:37:23;7.10;94.10
32366;DHT22;18837;46.832;16.838;2023-11-19T03:39:49;7.00;94.80
32366;DHT22;18837;46.832;16.838;2023-11-19T03:49:33;7.00;94.30
32366;DHT22;18837;46.832;16.838;2023-11-19T03:54:25;7.00;94.80
32366;DHT22;18837;46.832;16.838;2023-11-19T04:01:46;7.00;94.80
32366;DHT22;18837;46.832;16.838;2023-11-19T04:04:11;7.00;94.80
32366;DHT22;18837;46.832;16.838;2023-11-19T04:11:30;7.00;94.30
32366;DHT22;18837;46.832;16.838;2023-11-19T04:16:26;7.00;94.90
32366;DHT22;18837;46.832;16.838;2023-11-19T04:18:53;7.00;94.90
32366;DHT22;18837;46.832;16.838;2023-11-19T04:21:21;7.00;94.80
32366;DHT22;18837;46.832;16.838;2023-11-19T04:23:49;7.00;93.80
32366;DHT22;18837;46.832;16.838;2023-11-19T04:26:15;7.00;94.90
32366;DHT22;18837;46.832;16.838;2023-11-19T04:28:41;7.00;94.60
32366;DHT22;18837;46.832;16.838;2023-11-19T04:36:00;6.90;94.90
32366;DHT22;18837;46.832;16.838;2023-11-19T04:38:26;7.00;94.30
32366;DHT22;18837;46.832;16.838;2023-11-19T04:40:52;7.00;94.90
32366;DHT22;18837;46.832;16.838;2023-11-19T04:48:12;7.00;94.60
32366;DHT22;18837;46.832;16.838;2023-11-19T04:55:30;7.00;94.80
32366;DHT22;18837;46.832;16.838;2023-11-19T04:58:01;7.00;92.90
32366;DHT22;18837;46.832;16.838;2023-11-19T05:02:53;7.00;95.00
32366;DHT22;18837;46.832;16.838;2023-11-19T05:15:05;6.90;94.40
32366;DHT22;18837;46.832;16.838;2023-11-19T05:17:31;6.90;94.60
32366;DHT22;18837;46.832;16.838;2023-11-19T05:22:23;6.90;94.90
32366;DHT22;18837;46.832;16.838;2023-11-19T05:24:48;6.90;94.90
32366;DHT22;18837;46.832;16.838;2023-11-19T05:29:41;6.90;94.90
32366;DHT22;18837;46.832;16.838;2023-11-19T05:32:09;6.90;94.90
32366;DHT22;18837;46.832;16.838;2023-11-19T05:34:35;6.90;95.00
32366;DHT22;18837;46.832;16.838;2023-11-19T05:37:01;7.00;94.30
32366;DHT22;18837;46.832;16.838;2023-11-19T05:39:28;6.90;95.10
32366;DHT22;18837;46.832;16.838;2023-11-19T05:46:46;6.90;95.10
32366;DHT22;18837;46.832;16.838;2023-11-19T05:51:39;6.90;94.90
32366;DHT22;18837;46.832;16.838;2023-11-19T05:54:09;6.90;95.00
32366;DHT22;18837;46.832;16.838;2023-11-19T05:56:36;6.90;95.00
32366;DHT22;18837;46.832;16.838;2023-11-19T05:59:02;6.90;94.10
32366;DHT22;18837;46.832;16.838;2023-11-19T06:01:40;6.90;94.50
32366;DHT22;18837;46.832;16.838;2023-11-19T06:04:22;6.90;93.50
32366;DHT22;18837;46.832;16.838;2023-11-19T06:06:48;6.90;95.00
32366;DHT22;18837;46.832;16.838;2023-11-19T06:11:40;6.90;95.20
32366;DHT22;18837;46.832;16.838;2023-11-19T06:14:06;6.90;95.20
32366;DHT22;18837;46.832;16.838;2023-11-19T06:16:32;6.90;94.60
32366;DHT22;18837;46.832;16.838;2023-11-19T06:18:58;6.90;95.10
32366;DHT22;18837;46.832;16.838;2023-11-19T06:26:18;6.90;94.20
32366;DHT22;18837;46.832;16.838;2023-11-19T06:28:43;6.90;95.10
32366;DHT22;18837;46.832;16.838;2023-11-19T06:31:10;6.90;94.90
32366;DHT22;18837;46.832;16.838;2023-11-19T06:33:35;6.90;95.10
32366;DHT22;18837;46.832;16.838;2023-11-19T06:38:27;6.80;95.20
32366;DHT22;18837;46.832;16.838;2023-11-19T06:43:19;6.90;95.10
32366;DHT22;18837;46.832;16.838;2023-11-19T06:55:32;6.90;95.30
32366;DHT22;18837;46.832;16.838;2023-11-19T06:58:00;6.90;95.30
32366;DHT22;18837;46.832;16.838;2023-11-19T07:00:28;6.90;95.20
32366;DHT22;18837;46.832;16.838;2023-11-19T07:02:53;6.90;95.20
32366;DHT22;18837;46.832;16.838;2023-11-19T07:10:12;6.90;95.30
32366;DHT22;18837;46.832;16.838;2023-11-19T07:12:38;6.90;95.30
32366;DHT22;18837;46.832;16.838;2023-11-19T07:15:04;6.90;95.30
32366;DHT22;18837;46.832;16.838;2023-11-19T07:17:31;6.90;95.30
32366;DHT22;18837;46.832;16.838;2023-11-19T07:19:57;6.90;94.70
32366;DHT22;18837;46.832;16.838;2023-11-19T07:22:26;6.90;95.20
32366;DHT22;18837;46.832;16.838;2023-11-19T07:24:51;6.90;95.30
32366;DHT22;18837;46.832;16.838;2023-11-19T07:27:19;6.90;95.40
32366;DHT22;18837;46.832;16.838;2023-11-19T07:29:44;6.90;95.30
32366;DHT22;18837;46.832;16.838;2023-11-19T07:37:03;6.90;94.00
32366;DHT22;18837;46.832;16.838;2023-11-19T07:39:30;7.00;94.70
32366;DHT22;18837;46.832;16.838;2023-11-19T07:41:56;6.90;95.30
32366;DHT22;18837;46.832;16.838;2023-11-19T07:44:21;7.00;95.20
32366;DHT22;18837;46.832;16.838;2023-11-19T07:49:14;7.00;95.40
32366;DHT22;18837;46.832;16.838;2023-11-19T07:54:06;7.00;95.30
32366;DHT22;18837;46.832;16.838;2023-11-19T07:56:33;7.00;95.30
32366;DHT22;18837;46.832;16.838;2023-11-19T07:59:01;7.00;94.60
32366;DHT22;18837;46.832;16.838;2023-11-19T08:01:27;7.00;95.30
32366;DHT22;18837;46.832;16.838;2023-11-19T08:03:52;7.00;95.30
32366;DHT22;18837;46.832;16.838;2023-11-19T08:08:44;7.00;95.40
32366;DHT22;18837;46.832;16.838;2023-11-19T08:16:02;7.00;95.50
32366;DHT22;18837;46.832;16.838;2023-11-19T08:18:29;7.00;95.40
32366;DHT22;18837;46.832;16.838;2023-11-19T08:20:55;7.00;95.30
32366;DHT22;18837;46.832;16.838;2023-11-19T08:30:44;7.00;94.80
32366;DHT22;18837;46.832;16.838;2023-11-19T08:33:10;7.00;94.70
32366;DHT22;18837;46.832;16.838;2023-11-19T08:35:36;7.10;94.90
32366;DHT22;18837;46.832;16.838;2023-11-19T08:40:28;7.00;95.00
32366;DHT22;18837;46.832;16.838;2023-11-19T08:42:57;7.10;95.10
32366;DHT22;18837;46.832;16.838;2023-11-19T08:45:23;7.00;94.90
32366;DHT22;18837;46.832;16.838;2023-11-19T08:47:49;7.10;95.00
32366;DHT22;18837;46.832;16.838;2023-11-19T08:57:35;7.10;94.80
32366;DHT22;18837;46.832;16.838;2023-11-19T09:00:01;7.10;94.90
32366;DHT22;18837;46.832;16.838;2023-11-19T09:02:28;7.10;94.80
32366;DHT22;18837;46.832;16.838;2023-11-19T09:07:20;7.10;94.20
32366;DHT22;18837;46.832;16.838;2023-11-19T09:09:47;7.20;94.80
32366;DHT22;18837;46.832;16.838;2023-11-19T09:17:06;7.20;94.30
32366;DHT22;18837;46.832;16.838;2023-11-19T09:19:32;7.20;94.60
32366;DHT22;18837;46.832;16.838;2023-11-19T09:24:28;7.30;93.80
32366;DHT22;18837;46.832;16.838;2023-11-19T09:26:54;7.30;94.00
32366;DHT22;18837;46.832;16.838;2023-11-19T09:39:10;7.30;93.40
32366;DHT22;18837;46.832;16.838;2023-11-19T09:44:02;7.30;93.70
32366;DHT22;18837;46.832;16.838;2023-11-19T09:46:28;7.30;94.10
32366;DHT22;18837;46.832;16.838;2023-11-19T09:48:56;7.40;94.30
32366;DHT22;18837;46.832;16.838;2023-11-19T09:51:23;7.30;93.80
32366;DHT22;18837;46.832;16.838;2023-11-19T09:56:16;7.40;94.30
32366;DHT22;18837;46.832;16.838;2023-11-19T10:03:39;7.40;94.50
32366;DHT22;18837;46.832;16.838;2023-11-19T10:06:07;7.40;94.10
32366;DHT22;18837;46.832;16.838;2023-11-19T10:08:37;7.40;94.50
32366;DHT22;18837;46.832;16.838;2023-11-19T10:11:08;7.40;93.90
32366;DHT22;18837;46.832;16.838;2023-11-19T10:13:37;7.40;94.40
32366;DHT22;18837;46.832;16.838;2023-11-19T10:21:06;7.40;94.10
32366;DHT22;18837;46.832;16.838;2023-11-19T10:23:51;7.40;94.30
32366;DHT22;18837;46.832;16.838;2023-11-19T10:26:18;7.40;94.40
32366;DHT22;18837;46.832;16.838;2023-11-19T10:28:46;7.40;94.40
32366;DHT22;18837;46.832;16.838;2023-11-19T10:31:17;7.40;92.90
32366;DHT22;18837;46.832;16.838;2023-11-19T10:33:44;7.40;94.60
32366;DHT22;18837;46.832;16.838;2023-11-19T10:36:11;7.40;94.30
32366;DHT22;18837;46.832;16.838;2023-11-19T10:38:38;7.40;94.60
32366;DHT22;18837;46.832;16.838;2023-11-19T10:41:05;7.40;93.50
32366;DHT22;18837;46.832;16.838;2023-11-19T10:43:31;7.50;94.30
32366;DHT22;18837;46.832;16.838;2023-11-19T10:46:13;7.50;92.90
32366;DHT22;18837;46.832;16.838;2023-11-19T10:48:40;7.50;94.40
32366;DHT22;18837;46.832;16.838;2023-11-19T10:51:07;7.50;94.60
32366;DHT22;18837;46.832;16.838;2023-11-19T10:53:37;7.60;93.00
32366;DHT22;18837;46.832;16.838;2023-11-19T10:56:10;7.60;94.50
32366;DHT22;18837;46.832;16.838;2023-11-19T10:58:37;5.10;93.50
32366;DHT22;18837;46.832;16.838;2023-11-19T11:01:27;7.70;94.50
32366;DHT22;18837;46.832;16.838;2023-11-19T11:03:59;7.70;93.10
32366;DHT22;18837;46.832;16.838;2023-11-19T11:06:27;7.80;93.00
32366;DHT22;18837;46.832;16.838;2023-11-19T11:08:54;7.70;92.70
32366;DHT22;18837;46.832;16.838;2023-11-19T11:11:19;7.80;92.50
32366;DHT22;18837;46.832;16.838;2023-11-19T11:13:50;7.80;93.30
32366;DHT22;18837;46.832;16.838;2023-11-19T11:16:20;7.80;92.40
32366;DHT22;18837;46.832;16.838;2023-11-19T11:18:48;7.80;93.50
32366;DHT22;18837;46.832;16.838;2023-11-19T11:21:24;7.80;93.60
32366;DHT22;18837;46.832;16.838;2023-11-19T11:26:35;7.90;93.50
32366;DHT22;18837;46.832;16.838;2023-11-19T11:37:30;7.80;92.80
32366;DHT22;18837;46.832;16.838;2023-11-19T11:39:57;7.80;93.80
32366;DHT22;18837;46.832;16.838;2023-11-19T11:45:05;7.90;93.60
32366;DHT22;18837;46.832;16.838;2023-11-19T11:55:55;7.90;93.60
32366;DHT22;18837;46.832;16.838;2023-11-19T11:58:30;7.90;92.70
32366;DHT22;18837;46.832;16.838;2023-11-19T12:00:58;7.90;93.60
32366;DHT22;18837;46.832;16.838;2023-11-19T12:03:27;8.00;93.70
32366;DHT22;18837;46.832;16.838;2023-11-19T12:08:27;8.00;93.00
32366;DHT22;18837;46.832;16.838;2023-11-19T12:10:54;8.00;93.10
32366;DHT22;18837;46.832;16.838;2023-11-19T12:13:23;8.00;93.00
32366;DHT22;18837;46.832;16.838;2023-11-19T12:18:27;8.00;93.10
32366;DHT22;18837;46.832;16.838;2023-11-19T12:20:54;8.00;93.40
32366;DHT22;18837;46.832;16.838;2023-11-19T12:25:46;8.00;93.50
32366;DHT22;18837;46.832;16.838;2023-11-19T12:28:13;8.00;93.70
32366;DHT22;18837;46.832;16.838;2023-11-19T12:33:08;8.00;93.00
32366;DHT22;18837;46.832;16.838;2023-11-19T12:35:45;8.00;92.80
32366;DHT22;18837;46.832;16.838;2023-11-19T12:38:24;8.10;93.50
32366;DHT22;18837;46.832;16.838;2023-11-19T12:41:03;8.10;93.30
32366;DHT22;18837;46.832;16.838;2023-11-19T12:45:56;8.00;93.70
32366;DHT22;18837;46.832;16.838;2023-11-19T12:50:55;8.10;93.40
32366;DHT22;18837;46.832;16.838;2023-11-19T12:53:22;8.10;94.00
32366;DHT22;18837;46.832;16.838;2023-11-19T12:55:48;8.10;93.80
32366;DHT22;18837;46.832;16.838;2023-11-19T12:58:34;8.10;93.10
32366;DHT22;18837;46.832;16.838;2023-11-19T13:01:04;8.00;94.00
32366;DHT22;18837;46.832;16.838;2023-11-19T13:03:32;8.00;93.90
32366;DHT22;18837;46.832;16.838;2023-11-19T13:06:11;8.00;93.60
32366;DHT22;18837;46.832;16.838;2023-11-19T13:08:42;8.10;92.90
32366;DHT22;18837;46.832;16.838;2023-11-19T13:11:10;8.10;93.90
32366;DHT22;18837;46.832;16.838;2023-11-19T13:13:58;8.10;93.30
32366;DHT22;18837;46.832;16.838;2023-11-19T13:18:55;8.00;93.70
32366;DHT22;18837;46.832;16.838;2023-11-19T13:28:41;8.10;92.50
32366;DHT22;18837;46.832;16.838;2023-11-19T13:31:06;8.10;93.00
32366;DHT22;18837;46.832;16.838;2023-11-19T13:33:33;8.10;93.30
32366;DHT22;18837;46.832;16.838;2023-11-19T13:38:36;8.10;93.60
32366;DHT22;18837;46.832;16.838;2023-11-19T13:41:02;8.00;93.80
32366;DHT22;18837;46.832;16.838;2023-11-19T13:43:30;8.00;93.70
32366;DHT22;18837;46.832;16.838;2023-11-19T13:45:56;8.00;93.80
32366;DHT22;18837;46.832;16.838;2023-11-19T13:48:24;8.00;93.80
32366;DHT22;18837;46.832;16.838;2023-11-19T13:50:50;8.00;93.50
32366;DHT22;18837;46.832;16.838;2023-11-19T13:55:42;8.00;94.00
32366;DHT22;18837;46.832;16.838;2023-11-19T13:58:09;8.00;93.80
32366;DHT22;18837;46.832;16.838;2023-11-19T14:00:35;8.00;94.10
32366;DHT22;18837;46.832;16.838;2023-11-19T14:05:28;8.00;94.20
32366;DHT22;18837;46.832;16.838;2023-11-19T14:10:22;8.00;94.30
32366;DHT22;18837;46.832;16.838;2023-11-19T14:12:48;8.00;94.20
32366;DHT22;18837;46.832;16.838;2023-11-19T14:15:15;8.00;94.30
32366;DHT22;18837;46.832;16.838;2023-11-19T14:20:09;8.00;93.80
32366;DHT22;18837;46.832;16.838;2023-11-19T14:22:42;8.00;94.40
32366;DHT22;18837;46.832;16.838;2023-11-19T14:25:09;7.90;94.40
32366;DHT22;18837;46.832;16.838;2023-11-19T14:27:43;7.90;93.70
32366;DHT22;18837;46.832;16.838;2023-11-19T14:30:10;7.90;94.20
32366;DHT22;18837;46.832;16.838;2023-11-19T14:32:38;7.90;94.80
32366;DHT22;18837;46.832;16.838;2023-11-19T14:35:05;7.90;94.40
32366;DHT22;18837;46.832;16.838;2023-11-19T14:42:23;7.90;94.80
32366;DHT22;18837;46.832;16.838;2023-11-19T14:44:53;7.90;94.90
32366;DHT22;18837;46.832;16.838;2023-11-19T14:47:20;7.90;94.80
32366;DHT22;18837;46.832;16.838;2023-11-19T14:57:05;7.90;94.70
32366;DHT22;18837;46.832;16.838;2023-11-19T14:59:36;7.90;94.90
32366;DHT22;18837;46.832;16.838;2023-11-19T15:02:03;7.80;94.20
32366;DHT22;18837;46.832;16.838;2023-11-19T15:04:29;7.80;94.70
32366;DHT22;18837;46.832;16.838;2023-11-19T15:06:59;7.80;94.30
32366;DHT22;18837;46.832;16.838;2023-11-19T15:09:25;7.80;94.70
32366;DHT22;18837;46.832;16.838;2023-11-19T15:11:54;7.80;94.60
32366;DHT22;18837;46.832;16.838;2023-11-19T15:14:19;7.80;94.70
32366;DHT22;18837;46.832;16.838;2023-11-19T15:16:46;7.80;95.00
32366;DHT22;18837;46.832;16.838;2023-11-19T15:19:13;7.80;94.80
32366;DHT22;18837;46.832;16.838;2023-11-19T15:21:42;7.80;94.90
32366;DHT22;18837;46.832;16.838;2023-11-19T15:24:08;7.80;94.70
32366;DHT22;18837;46.832;16.838;2023-11-19T15:26:35;7.80;94.90
32366;DHT22;18837;46.832;16.838;2023-11-19T15:29:01;7.70;94.90
32366;DHT22;18837;46.832;16.838;2023-11-19T15:31:28;7.80;94.90
32366;DHT22;18837;46.832;16.838;2023-11-19T15:33:54;7.70;94.30
32366;DHT22;18837;46.832;16.838;2023-11-19T15:36:20;7.70;94.80
32366;DHT22;18837;46.832;16.838;2023-11-19T15:38:46;7.70;95.00
32366;DHT22;18837;46.832;16.838;2023-11-19T15:41:12;7.70;94.20
32366;DHT22;18837;46.832;16.838;2023-11-19T15:43:38;7.70;94.80
32366;DHT22;18837;46.832;16.838;2023-11-19T15:46:10;7.70;94.00
32366;DHT22;18837;46.832;16.838;2023-11-19T15:48:39;7.70;94.80
32366;DHT22;18837;46.832;16.838;2023-11-19T15:55:58;7.70;94.80
32366;DHT22;18837;46.832;16.838;2023-11-19T15:58:23;7.60;94.70
32366;DHT22;18837;46.832;16.838;2023-11-19T16:05:42;7.60;94.90
32366;DHT22;18837;46.832;16.838;2023-11-19T16:10:39;7.50;94.90
32366;DHT22;18837;46.832;16.838;2023-11-19T16:13:08;7.60;94.90
32366;DHT22;18837;46.832;16.838;2023-11-19T16:15:34;7.60;95.00
32366;DHT22;18837;46.832;16.838;2023-11-19T16:18:00;7.60;95.10
32366;DHT22;18837;46.832;16.838;2023-11-19T16:20:26;7.60;95.00
32366;DHT22;18837;46.832;16.838;2023-11-19T16:25:18;7.60;95.00
32366;DHT22;18837;46.832;16.838;2023-11-19T16:30:10;7.50;95.00
32366;DHT22;18837;46.832;16.838;2023-11-19T16:32:49;7.50;95.00
32366;DHT22;18837;46.832;16.838;2023-11-19T16:37:42;7.50;94.90
32366;DHT22;18837;46.832;16.838;2023-11-19T16:40:08;7.50;95.10
32366;DHT22;18837;46.832;16.838;2023-11-19T16:45:05;7.50;95.10
32366;DHT22;18837;46.832;16.838;2023-11-19T16:47:32;7.50;95.20
32366;DHT22;18837;46.832;16.838;2023-11-19T16:49:58;7.50;95.10
32366;DHT22;18837;46.832;16.838;2023-11-19T16:57:17;7.50;95.20
32366;DHT22;18837;46.832;16.838;2023-11-19T16:59:48;7.50;95.20
32366;DHT22;18837;46.832;16.838;2023-11-19T17:04:42;7.50;95.30
32366;DHT22;18837;46.832;16.838;2023-11-19T17:09:34;7.50;95.20
32366;DHT22;18837;46.832;16.838;2023-11-19T17:14:26;7.50;95.30
32366;DHT22;18837;46.832;16.838;2023-11-19T17:16:52;7.50;95.20
32366;DHT22;18837;46.832;16.838;2023-11-19T17:19:17;7.40;95.10
32366;DHT22;18837;46.832;16.838;2023-11-19T17:21:43;7.40;95.10
32366;DHT22;18837;46.832;16.838;2023-11-19T17:31:32;7.40;95.30
32366;DHT22;18837;46.832;16.838;2023-11-19T17:33:58;7.40;95.20
32366;DHT22;18837;46.832;16.838;2023-11-19T17:48:34;7.40;95.30
32366;DHT22;18837;46.832;16.838;2023-11-19T17:53:27;7.40;95.40
32366;DHT22;18837;46.832;16.838;2023-11-19T17:58:20;7.40;94.70
32366;DHT22;18837;46.832;16.838;2023-11-19T18:00:47;7.40;95.30
32366;DHT22;18837;46.832;16.838;2023-11-19T18:03:13;7.40;95.30
32366;DHT22;18837;46.832;16.838;2023-11-19T18:08:08;7.40;95.50
32366;DHT22;18837;46.832;16.838;2023-11-19T18:10:36;7.40;95.10
32366;DHT22;18837;46.832;16.838;2023-11-19T18:15:28;7.40;95.40
32366;DHT22;18837;46.832;16.838;2023-11-19T18:17:54;7.40;95.20
32366;DHT22;18837;46.832;16.838;2023-11-19T18:20:21;7.40;95.60
32366;DHT22;18837;46.832;16.838;2023-11-19T18:22:48;7.40;95.40
32366;DHT22;18837;46.832;16.838;2023-11-19T18:25:14;7.40;95.40
32366;DHT22;18837;46.832;16.838;2023-11-19T18:30:09;7.30;95.40
32366;DHT22;18837;46.832;16.838;2023-11-19T18:32:39;7.30;95.50
32366;DHT22;18837;46.832;16.838;2023-11-19T18:35:07;7.30;94.90
32366;DHT22;18837;46.832;16.838;2023-11-19T18:37:39;7.30;95.50
32366;DHT22;18837;46.832;16.838;2023-11-19T18:40:07;7.30;95.40
32366;DHT22;18837;46.832;16.838;2023-11-19T18:42:37;7.40;95.60
32366;DHT22;18837;46.832;16.838;2023-11-19T18:45:03;7.30;95.10
32366;DHT22;18837;46.832;16.838;2023-11-19T18:47:30;7.30;95.50
32366;DHT22;18837;46.832;16.838;2023-11-19T18:57:15;7.30;95.60
32366;DHT22;18837;46.832;16.838;2023-11-19T18:59:41;7.30;95.50
32366;DHT22;18837;46.832;16.838;2023-11-19T19:02:07;7.30;95.60
32366;DHT22;18837;46.832;16.838;2023-11-19T19:04:33;7.20;95.50
32366;DHT22;18837;46.832;16.838;2023-11-19T19:06:59;7.30;95.10
32366;DHT22;18837;46.832;16.838;2023-11-19T19:09:28;7.20;95.60
32366;DHT22;18837;46.832;16.838;2023-11-19T19:16:46;7.20;95.50
32366;DHT22;18837;46.832;16.838;2023-11-19T19:19:12;7.20;95.20
32366;DHT22;18837;46.832;16.838;2023-11-19T19:24:05;7.20;95.50
32366;DHT22;18837;46.832;16.838;2023-11-19T19:26:34;7.20;95.60
32366;DHT22;18837;46.832;16.838;2023-11-19T19:29:00;7.20;95.60
32366;DHT22;18837;46.832;16.838;2023-11-19T19:33:53;7.20;94.90
32366;DHT22;18837;46.832;16.838;2023-11-19T19:36:27;7.20;95.80
32366;DHT22;18837;46.832;16.838;2023-11-19T19:38:57;7.20;95.60
32366;DHT22;18837;46.832;16.838;2023-11-19T19:43:49;7.20;95.50
32366;DHT22;18837;46.832;16.838;2023-11-19T19:56:04;7.20;95.70
32366;DHT22;18837;46.832;16.838;2023-11-19T20:03:25;7.10;95.20
32366;DHT22;18837;46.832;16.838;2023-11-19T20:05:51;7.10;95.40
32366;DHT22;18837;46.832;16.838;2023-11-19T20:08:16;7.10;95.60
32366;DHT22;18837;46.832;16.838;2023-11-19T20:10:45;7.10;95.80
32366;DHT22;18837;46.832;16.838;2023-11-19T20:13:13;7.10;95.60
32366;DHT22;18837;46.832;16.838;2023-11-19T20:20:39;7.10;95.60
32366;DHT22;18837;46.832;16.838;2023-11-19T20:26:12;7.10;95.70
32366;DHT22;18837;46.832;16.838;2023-11-19T20:29:59;7.10;95.60
32366;DHT22;18837;46.832;16.838;2023-11-19T20:32:29;7.10;94.20
32366;DHT22;18837;46.832;16.838;2023-11-19T20:39:54;7.10;95.70
32366;DHT22;18837;46.832;16.838;2023-11-19T20:42:20;7.10;95.50
32366;DHT22;18837;46.832;16.838;2023-11-19T20:44:54;7.00;93.80
32366;DHT22;18837;46.832;16.838;2023-11-19T20:52:35;7.10;95.70
32366;DHT22;18837;46.832;16.838;2023-11-19T20:55:06;7.00;95.80
32366;DHT22;18837;46.832;16.838;2023-11-19T20:57:39;7.00;94.50
32366;DHT22;18837;46.832;16.838;2023-11-19T21:00:15;7.00;94.60
32366;DHT22;18837;46.832;16.838;2023-11-19T21:02:48;7.00;95.80
32366;DHT22;18837;46.832;16.838;2023-11-19T21:07:42;7.00;95.70
32366;DHT22;18837;46.832;16.838;2023-11-19T21:10:08;7.00;95.90
32366;DHT22;18837;46.832;16.838;2023-11-19T21:12:42;7.00;95.70
32366;DHT22;18837;46.832;16.838;2023-11-19T21:19:09;7.00;95.00
32366;DHT22;18837;46.832;16.838;2023-11-19T21:28:58;7.00;95.90
32366;DHT22;18837;46.832;16.838;2023-11-19T21:33:51;7.00;95.10
32366;DHT22;18837;46.832;16.838;2023-11-19T21:36:19;7.00;96.20
32366;DHT22;18837;46.832;16.838;2023-11-19T21:38:55;7.00;96.00
32366;DHT22;18837;46.832;16.838;2023-11-19T21:41:21;7.00;95.90
32366;DHT22;18837;46.832;16.838;2023-11-19T21:46:16;7.00;96.00
32366;DHT22;18837;46.832;16.838;2023-11-19T21:48:47;7.00;96.00
32366;DHT22;18837;46.832;16.838;2023-11-19T21:53:39;7.00;95.90
32366;DHT22;18837;46.832;16.838;2023-11-19T21:56:06;7.00;96.00
32366;DHT22;18837;46.832;16.838;2023-11-19T22:00:58;6.90;95.90
32366;DHT22;18837;46.832;16.838;2023-11-19T22:03:25;6.90;95.80
32366;DHT22;18837;46.832;16.838;2023-11-19T22:06:06;6.90;95.90
32366;DHT22;18837;46.832;16.838;2023-11-19T22:08:45;6.90;95.90
32366;DHT22;18837;46.832;16.838;2023-11-19T22:11:16;6.90;96.00
32366;DHT22;18837;46.832;16.838;2023-11-19T22:13:43;6.90;95.90
32366;DHT22;18837;46.832;16.838;2023-11-19T22:16:09;6.90;95.80
32366;DHT22;18837;46.832;16.838;2023-11-19T22:21:46;6.90;94.20
32366;DHT22;18837;46.832;16.838;2023-11-19T22:25:09;6.90;94.70
32366;DHT22;18837;46.832;16.838;2023-11-19T22:27:35;6.90;95.90